sensor_id;sensor_type;location;lat;lon;timestamp;pressure;altitude;pressure_sealevel;temperature;humidity
76590;BME280;65471;55.908;37.880;2023-02-28T00:01:26;100223.00;;;-6.34;75.25
76590;BME280;65471;55.908;37.880;2023-02-28T00:03:53;100228.16;;;-6.33;75.57
76590;BME280;65471;55.908;37.880;2023-02-28T00:06:20;100220.25;;;-6.33;74.71
76590;BME280;65471;55.908;37.880;2023-02-28T00:08:47;100217.53;;;-6.31;75.25
76590;BME280;65471;55.908;37.880;2023-02-28T00:11:15;100204.28;;;-6.30;75.16
76590;BME280;65471;55.908;37.880;2023-02-28T00:13:44;100215.34;;;-6.37;75.39
76590;BME280;65471;55.908;37.880;2023-02-28T00:16:18;100212.09;;;-6.41;75.39
76590;BME280;65471;55.908;37.880;2023-02-28T00:18:45;100194.34;;;-6.50;75.09
76590;BME280;65471;55.908;37.880;2023-02-28T00:21:15;100199.59;;;-6.50;75.57
76590;BME280;65471;55.908;37.880;2023-02-28T00:23:42;100192.66;;;-6.51;75.34
76590;BME280;65471;55.908;37.880;2023-02-28T00:26:10;100192.88;;;-6.54;75.26
76590;BME280;65471;55.908;37.880;2023-02-28T00:28:37;100193.75;;;-6.54;75.66
76590;BME280;65471;55.908;37.880;2023-02-28T00:31:04;100198.38;;;-6.57;75.16
76590;BME280;65471;55.908;37.880;2023-02-28T00:33:31;100162.53;;;-6.71;75.38
76590;BME280;65471;55.908;37.880;2023-02-28T00:36:03;100190.72;;;-6.61;76.15
76590;BME280;65471;55.908;37.880;2023-02-28T00:41:03;100185.34;;;-6.59;75.63
76590;BME280;65471;55.908;37.880;2023-02-28T00:43:34;100188.06;;;-6.61;75.85
76590;BME280;65471;55.908;37.880;2023-02-28T00:46:02;100159.91;;;-6.71;75.84
76590;BME280;65471;55.908;37.880;2023-02-28T00:48:29;100164.91;;;-6.55;75.81
76590;BME280;65471;55.908;37.880;2023-02-28T00:50:56;100179.97;;;-6.57;75.49
76590;BME280;65471;55.908;37.880;2023-02-28T00:53:23;100171.56;;;-6.63;75.07
76590;BME280;65471;55.908;37.880;2023-02-28T00:55:50;100163.88;;;-6.66;75.27
76590;BME280;65471;55.908;37.880;2023-02-28T00:58:17;100158.63;;;-6.66;75.97
76590;BME280;65471;55.908;37.880;2023-02-28T01:00:44;100147.28;;;-6.66;75.03
76590;BME280;65471;55.908;37.880;2023-02-28T01:03:19;100139.41;;;-6.66;75.59
76590;BME280;65471;55.908;37.880;2023-02-28T01:05:46;100143.06;;;-6.69;75.21
76590;BME280;65471;55.908;37.880;2023-02-28T01:08:14;100138.56;;;-6.67;75.25
76590;BME280;65471;55.908;37.880;2023-02-28T01:10:41;100105.59;;;-6.84;75.39
76590;BME280;65471;55.908;37.880;2023-02-28T01:13:08;100120.16;;;-6.67;75.37
76590;BME280;65471;55.908;37.880;2023-02-28T01:15:35;100116.66;;;-6.67;74.87
76590;BME280;65471;55.908;37.880;2023-02-28T01:18:02;100103.63;;;-6.69;74.32
76590;BME280;65471;55.908;37.880;2023-02-28T01:20:29;100103.75;;;-6.70;74.81
76590;BME280;65471;55.908;37.880;2023-02-28T01:22:56;100100.00;;;-6.79;74.50
76590;BME280;65471;55.908;37.880;2023-02-28T01:25:22;100090.03;;;-6.87;74.53
76590;BME280;65471;55.908;37.880;2023-02-28T01:27:49;100088.91;;;-6.96;74.72
76590;BME280;65471;55.908;37.880;2023-02-28T01:30:16;100085.56;;;-6.98;75.03
76590;BME280;65471;55.908;37.880;2023-02-28T01:32:43;100080.97;;;-7.07;74.69
76590;BME280;65471;55.908;37.880;2023-02-28T01:35:10;100067.34;;;-7.12;74.95
76590;BME280;65471;55.908;37.880;2023-02-28T01:37:37;100070.31;;;-7.17;75.18
76590;BME280;65471;55.908;37.880;2023-02-28T01:40:04;100065.06;;;-7.17;75.51
76590;BME280;65471;55.908;37.880;2023-02-28T01:42:31;100069.09;;;-7.13;74.96
76590;BME280;65471;55.908;37.880;2023-02-28T01:45:43;100070.91;;;-7.13;75.31
76590;BME280;65471;55.908;37.880;2023-02-28T01:47:56;100059.28;;;-7.22;74.65
76590;BME280;65471;55.908;37.880;2023-02-28T01:50:28;100069.91;;;-7.23;75.00
76590;BME280;65471;55.908;37.880;2023-02-28T01:52:58;100063.53;;;-7.32;75.04
76590;BME280;65471;55.908;37.880;2023-02-28T01:55:27;100043.72;;;-7.49;75.19
76590;BME280;65471;55.908;37.880;2023-02-28T01:57:57;100051.47;;;-7.48;75.58
76590;BME280;65471;55.908;37.880;2023-02-28T02:00:26;100048.09;;;-7.50;75.57
76590;BME280;65471;55.908;37.880;2023-02-28T02:02:56;100038.22;;;-7.46;76.42
76590;BME280;65471;55.908;37.880;2023-02-28T02:05:26;100036.75;;;-7.50;75.55
76590;BME280;65471;55.908;37.880;2023-02-28T02:07:55;100038.69;;;-7.52;75.75
76590;BME280;65471;55.908;37.880;2023-02-28T02:10:33;100041.09;;;-7.49;76.08
76590;BME280;65471;55.908;37.880;2023-02-28T02:18:59;100013.53;;;-7.43;76.30
76590;BME280;65471;55.908;37.880;2023-02-28T02:35:25;99994.69;;;-7.61;76.81
76590;BME280;65471;55.908;37.880;2023-02-28T02:38:08;99978.09;;;-7.62;76.13
76590;BME280;65471;55.908;37.880;2023-02-28T02:41:14;99967.91;;;-7.67;76.05
76590;BME280;65471;55.908;37.880;2023-02-28T02:43:53;99962.66;;;-7.67;76.65
76590;BME280;65471;55.908;37.880;2023-02-28T02:49:00;99962.59;;;-7.78;76.33
76590;BME280;65471;55.908;37.880;2023-02-28T02:51:32;99939.22;;;-7.94;77.43
76590;BME280;65471;55.908;37.880;2023-02-28T02:54:08;99953.16;;;-7.81;76.98
76590;BME280;65471;55.908;37.880;2023-02-28T02:56:35;99953.28;;;-7.82;77.24
76590;BME280;65471;55.908;37.880;2023-02-28T02:59:05;99944.88;;;-7.87;77.17
76590;BME280;65471;55.908;37.880;2023-02-28T03:01:34;99951.81;;;-7.86;77.65
76590;BME280;65471;55.908;37.880;2023-02-28T03:04:08;99943.19;;;-7.88;77.98
76590;BME280;65471;55.908;37.880;2023-02-28T03:06:35;99928.59;;;-7.92;77.94
76590;BME280;65471;55.908;37.880;2023-02-28T03:09:02;99933.94;;;-7.81;78.08
76590;BME280;65471;55.908;37.880;2023-02-28T03:11:31;99906.91;;;-7.94;78.00
76590;BME280;65471;55.908;37.880;2023-02-28T03:23:15;99921.00;;;-7.71;77.84
76590;BME280;65471;55.908;37.880;2023-02-28T03:25:57;99902.28;;;-7.67;77.74
76590;BME280;65471;55.908;37.880;2023-02-28T03:28:49;99908.50;;;-7.68;77.54
76590;BME280;65471;55.908;37.880;2023-02-28T03:34:13;99859.97;;;-7.86;77.94
76590;BME280;65471;55.908;37.880;2023-02-28T03:36:46;99887.09;;;-7.74;78.29
76590;BME280;65471;55.908;37.880;2023-02-28T03:39:22;99874.53;;;-7.82;78.43
76590;BME280;65471;55.908;37.880;2023-02-28T03:41:58;99886.88;;;-7.71;78.53
76590;BME280;65471;55.908;37.880;2023-02-28T03:44:33;99892.75;;;-7.68;77.72
76590;BME280;65471;55.908;37.880;2023-02-28T03:47:04;99878.63;;;-7.67;78.31
76590;BME280;65471;55.908;37.880;2023-02-28T03:49:39;99876.88;;;-7.66;78.04
76590;BME280;65471;55.908;37.880;2023-02-28T03:52:10;99869.00;;;-7.66;78.32
76590;BME280;65471;55.908;37.880;2023-02-28T03:54:45;99868.88;;;-7.65;78.14
76590;BME280;65471;55.908;37.880;2023-02-28T04:00:14;99835.94;;;-7.69;78.09
76590;BME280;65471;55.908;37.880;2023-02-28T04:02:44;99858.44;;;-7.53;77.94
76590;BME280;65471;55.908;37.880;2023-02-28T04:05:11;99848.03;;;-7.55;77.24
76590;BME280;65471;55.908;37.880;2023-02-28T04:07:37;99848.28;;;-7.58;77.36
76590;BME280;65471;55.908;37.880;2023-02-28T04:10:05;99851.59;;;-7.56;77.53
76590;BME280;65471;55.908;37.880;2023-02-28T04:12:32;99849.59;;;-7.52;77.16
76590;BME280;65471;55.908;37.880;2023-02-28T04:14:58;99841.38;;;-7.48;77.06
76590;BME280;65471;55.908;37.880;2023-02-28T04:17:25;99828.97;;;-7.46;77.57
76590;BME280;65471;55.908;37.880;2023-02-28T04:19:52;99842.59;;;-7.40;77.59
76590;BME280;65471;55.908;37.880;2023-02-28T04:22:20;99846.56;;;-7.35;77.10
76590;BME280;65471;55.908;37.880;2023-02-28T04:24:47;99839.38;;;-7.33;77.04
76590;BME280;65471;55.908;37.880;2023-02-28T04:27:14;99823.63;;;-7.33;76.64
76590;BME280;65471;55.908;37.880;2023-02-28T04:29:42;99814.28;;;-7.37;76.61
76590;BME280;65471;55.908;37.880;2023-02-28T04:32:11;99813.34;;;-7.36;76.76
76590;BME280;65471;55.908;37.880;2023-02-28T04:34:38;99811.66;;;-7.37;76.38
76590;BME280;65471;55.908;37.880;2023-02-28T04:37:05;99804.75;;;-7.38;76.54
76590;BME280;65471;55.908;37.880;2023-02-28T04:39:39;99803.91;;;-7.38;76.43
76590;BME280;65471;55.908;37.880;2023-02-28T04:42:06;99804.53;;;-7.35;76.18
76590;BME280;65471;55.908;37.880;2023-02-28T04:44:33;99788.78;;;-7.35;76.22
76590;BME280;65471;55.908;37.880;2023-02-28T04:47:00;99788.78;;;-7.35;76.11
76590;BME280;65471;55.908;37.880;2023-02-28T04:49:27;99771.69;;;-7.40;76.32
76590;BME280;65471;55.908;37.880;2023-02-28T04:51:54;99773.38;;;-7.28;75.43
76590;BME280;65471;55.908;37.880;2023-02-28T04:54:22;99767.66;;;-7.22;75.49
76590;BME280;65471;55.908;37.880;2023-02-28T04:56:48;99761.09;;;-7.16;74.92
76590;BME280;65471;55.908;37.880;2023-02-28T04:59:16;99748.19;;;-7.19;74.87
76590;BME280;65471;55.908;37.880;2023-02-28T05:01:46;99745.91;;;-7.24;75.46
76590;BME280;65471;55.908;37.880;2023-02-28T05:04:14;99709.84;;;-7.44;74.89
76590;BME280;65471;55.908;37.880;2023-02-28T05:06:40;99732.19;;;-7.28;75.18
76590;BME280;65471;55.908;37.880;2023-02-28T05:09:07;99713.69;;;-7.26;74.56
76590;BME280;65471;55.908;37.880;2023-02-28T05:11:34;99703.16;;;-7.37;74.86
76590;BME280;65471;55.908;37.880;2023-02-28T05:14:06;99716.19;;;-7.24;74.37
76590;BME280;65471;55.908;37.880;2023-02-28T05:16:35;99698.16;;;-7.29;74.58
76590;BME280;65471;55.908;37.880;2023-02-28T05:19:02;99700.91;;;-7.19;74.32
76590;BME280;65471;55.908;37.880;2023-02-28T05:24:05;99695.41;;;-7.05;74.38
76590;BME280;65471;55.908;37.880;2023-02-28T05:26:38;99687.28;;;-7.02;73.81
76590;BME280;65471;55.908;37.880;2023-02-28T05:29:05;99693.00;;;-6.97;73.53
76590;BME280;65471;55.908;37.880;2023-02-28T05:31:33;99701.59;;;-6.95;73.50
76590;BME280;65471;55.908;37.880;2023-02-28T05:34:00;99674.50;;;-6.95;73.38
76590;BME280;65471;55.908;37.880;2023-02-28T05:36:27;99667.53;;;-6.85;72.95
76590;BME280;65471;55.908;37.880;2023-02-28T05:38:53;99677.31;;;-6.76;73.26
76590;BME280;65471;55.908;37.880;2023-02-28T05:41:20;99659.97;;;-6.67;72.14
76590;BME280;65471;55.908;37.880;2023-02-28T05:43:48;99654.59;;;-6.65;72.09
76590;BME280;65471;55.908;37.880;2023-02-28T05:46:15;99640.59;;;-6.66;71.07
76590;BME280;65471;55.908;37.880;2023-02-28T05:48:45;99641.44;;;-6.65;71.22
76590;BME280;65471;55.908;37.880;2023-02-28T05:51:12;99626.38;;;-6.63;71.71
76590;BME280;65471;55.908;37.880;2023-02-28T05:53:39;99619.66;;;-6.56;71.74
76590;BME280;65471;55.908;37.880;2023-02-28T05:56:06;99603.13;;;-6.47;71.61
76590;BME280;65471;55.908;37.880;2023-02-28T05:58:33;99594.59;;;-6.39;70.42
76590;BME280;65471;55.908;37.880;2023-02-28T06:01:24;99599.47;;;-6.34;70.33
76590;BME280;65471;55.908;37.880;2023-02-28T06:03:51;99590.09;;;-6.27;69.71
76590;BME280;65471;55.908;37.880;2023-02-28T06:06:18;99568.28;;;-6.18;70.25
76590;BME280;65471;55.908;37.880;2023-02-28T06:08:45;99573.16;;;-6.13;69.21
76590;BME280;65471;55.908;37.880;2023-02-28T06:11:13;99579.13;;;-6.11;68.68
76590;BME280;65471;55.908;37.880;2023-02-28T06:13:40;99557.94;;;-6.10;68.75
76590;BME280;65471;55.908;37.880;2023-02-28T06:16:10;99564.50;;;-6.04;68.50
76590;BME280;65471;55.908;37.880;2023-02-28T06:18:37;99564.22;;;-6.01;68.61
76590;BME280;65471;55.908;37.880;2023-02-28T06:21:04;99569.78;;;-5.94;68.48
76590;BME280;65471;55.908;37.880;2023-02-28T06:23:31;99563.03;;;-5.87;68.29
76590;BME280;65471;55.908;37.880;2023-02-28T06:25:58;99577.13;;;-5.67;67.00
76590;BME280;65471;55.908;37.880;2023-02-28T06:28:25;99570.72;;;-5.64;66.91
76590;BME280;65471;55.908;37.880;2023-02-28T06:30:52;99564.22;;;-5.60;66.88
76590;BME280;65471;55.908;37.880;2023-02-28T06:33:19;99560.69;;;-5.49;67.08
76590;BME280;65471;55.908;37.880;2023-02-28T06:35:47;99539.94;;;-5.33;67.07
76590;BME280;65471;55.908;37.880;2023-02-28T06:38:16;99521.34;;;-5.22;66.55
76590;BME280;65471;55.908;37.880;2023-02-28T06:40:44;99508.06;;;-5.20;67.01
76590;BME280;65471;55.908;37.880;2023-02-28T06:43:11;99499.88;;;-5.17;67.38
76590;BME280;65471;55.908;37.880;2023-02-28T06:45:43;99506.53;;;-5.13;67.43
76590;BME280;65471;55.908;37.880;2023-02-28T06:48:10;99505.41;;;-5.10;67.44
76590;BME280;65471;55.908;37.880;2023-02-28T06:50:37;99501.81;;;-4.99;67.77
76590;BME280;65471;55.908;37.880;2023-02-28T06:53:04;99490.69;;;-4.93;67.33
76590;BME280;65471;55.908;37.880;2023-02-28T06:55:31;99485.56;;;-4.85;66.76
76590;BME280;65471;55.908;37.880;2023-02-28T06:57:58;99487.53;;;-4.87;66.98
76590;BME280;65471;55.908;37.880;2023-02-28T07:00:25;99476.84;;;-4.86;67.11
76590;BME280;65471;55.908;37.880;2023-02-28T07:02:52;99468.66;;;-4.92;67.25
76590;BME280;65471;55.908;37.880;2023-02-28T07:05:20;99463.22;;;-4.81;67.52
76590;BME280;65471;55.908;37.880;2023-02-28T07:07:47;99452.69;;;-4.81;67.31
76590;BME280;65471;55.908;37.880;2023-02-28T07:10:14;99428.22;;;-4.73;67.76
76590;BME280;65471;55.908;37.880;2023-02-28T07:12:45;99439.75;;;-4.64;67.72
76590;BME280;65471;55.908;37.880;2023-02-28T07:15:12;99427.09;;;-4.61;67.41
76590;BME280;65471;55.908;37.880;2023-02-28T07:17:39;99423.50;;;-4.60;67.14
76590;BME280;65471;55.908;37.880;2023-02-28T07:20:06;99419.97;;;-4.51;67.22
76590;BME280;65471;55.908;37.880;2023-02-28T07:22:33;99431.25;;;-4.48;67.63
76590;BME280;65471;55.908;37.880;2023-02-28T07:25:00;99409.56;;;-4.52;68.08
76590;BME280;65471;55.908;37.880;2023-02-28T07:27:28;99426.78;;;-4.48;68.34
76590;BME280;65471;55.908;37.880;2023-02-28T07:29:55;99418.44;;;-4.43;68.40
76590;BME280;65471;55.908;37.880;2023-02-28T07:32:22;99387.66;;;-4.53;68.14
76590;BME280;65471;55.908;37.880;2023-02-28T07:34:52;99397.13;;;-4.32;68.43
76590;BME280;65471;55.908;37.880;2023-02-28T07:37:19;99394.91;;;-4.27;68.77
76590;BME280;65471;55.908;37.880;2023-02-28T07:39:46;99413.38;;;-4.27;69.04
76590;BME280;65471;55.908;37.880;2023-02-28T07:42:13;99408.22;;;-4.19;68.45
76590;BME280;65471;55.908;37.880;2023-02-28T07:44:40;99405.81;;;-4.12;68.83
76590;BME280;65471;55.908;37.880;2023-02-28T07:47:08;99406.34;;;-4.08;68.53
76590;BME280;65471;55.908;37.880;2023-02-28T07:49:37;99398.00;;;-4.04;68.62
76590;BME280;65471;55.908;37.880;2023-02-28T07:52:07;99393.25;;;-4.00;68.79
76590;BME280;65471;55.908;37.880;2023-02-28T07:54:33;99391.69;;;-3.93;68.84
76590;BME280;65471;55.908;37.880;2023-02-28T07:57:00;99387.56;;;-3.77;68.66
76590;BME280;65471;55.908;37.880;2023-02-28T07:59:27;99386.66;;;-3.68;68.41
76590;BME280;65471;55.908;37.880;2023-02-28T08:01:57;99389.00;;;-3.65;68.19
76590;BME280;65471;55.908;37.880;2023-02-28T08:04:26;99375.47;;;-3.62;68.37
76590;BME280;65471;55.908;37.880;2023-02-28T08:06:53;99375.13;;;-3.67;68.96
76590;BME280;65471;55.908;37.880;2023-02-28T08:09:20;99329.16;;;-3.74;68.19
76590;BME280;65471;55.908;37.880;2023-02-28T08:11:46;99354.34;;;-3.62;68.08
76590;BME280;65471;55.908;37.880;2023-02-28T08:14:13;99357.53;;;-3.58;68.69
76590;BME280;65471;55.908;37.880;2023-02-28T08:16:40;99334.66;;;-3.68;68.79
76590;BME280;65471;55.908;37.880;2023-02-28T08:19:09;99334.66;;;-3.68;69.00
76590;BME280;65471;55.908;37.880;2023-02-28T08:21:36;99350.72;;;-3.61;69.18
76590;BME280;65471;55.908;37.880;2023-02-28T08:24:03;99347.84;;;-3.50;68.66
76590;BME280;65471;55.908;37.880;2023-02-28T08:26:29;99367.09;;;-3.39;68.53
76590;BME280;65471;55.908;37.880;2023-02-28T08:28:56;99383.34;;;-3.34;68.53
76590;BME280;65471;55.908;37.880;2023-02-28T08:31:26;99401.03;;;-3.35;68.20
76590;BME280;65471;55.908;37.880;2023-02-28T08:33:53;99400.50;;;-3.38;68.21
76590;BME280;65471;55.908;37.880;2023-02-28T08:36:23;99392.47;;;-3.47;69.14
76590;BME280;65471;55.908;37.880;2023-02-28T08:38:50;99395.50;;;-3.41;69.61
76590;BME280;65471;55.908;37.880;2023-02-28T08:41:17;99400.19;;;-3.35;69.35
76590;BME280;65471;55.908;37.880;2023-02-28T08:43:44;99393.63;;;-3.31;70.36
76590;BME280;65471;55.908;37.880;2023-02-28T08:46:12;99388.63;;;-3.34;71.04
76590;BME280;65471;55.908;37.880;2023-02-28T08:48:40;99374.84;;;-3.46;71.63
76590;BME280;65471;55.908;37.880;2023-02-28T08:51:10;99373.63;;;-3.52;73.14
76590;BME280;65471;55.908;37.880;2023-02-28T08:53:38;99372.72;;;-3.60;73.79
76590;BME280;65471;55.908;37.880;2023-02-28T08:56:08;99372.47;;;-3.67;75.30
76590;BME280;65471;55.908;37.880;2023-02-28T08:58:36;99360.25;;;-3.68;75.73
76590;BME280;65471;55.908;37.880;2023-02-28T09:01:16;99342.13;;;-3.63;76.55
76590;BME280;65471;55.908;37.880;2023-02-28T09:03:44;99325.34;;;-3.54;76.63
76590;BME280;65471;55.908;37.880;2023-02-28T09:06:14;99325.03;;;-3.51;75.92
76590;BME280;65471;55.908;37.880;2023-02-28T09:08:41;99336.81;;;-3.45;76.12
76590;BME280;65471;55.908;37.880;2023-02-28T09:11:09;99333.06;;;-3.42;75.84
76590;BME280;65471;55.908;37.880;2023-02-28T09:13:37;99330.88;;;-3.29;75.42
76590;BME280;65471;55.908;37.880;2023-02-28T09:16:06;99329.78;;;-3.18;75.14
76590;BME280;65471;55.908;37.880;2023-02-28T09:18:34;99326.00;;;-3.16;73.92
76590;BME280;65471;55.908;37.880;2023-02-28T09:21:05;99335.59;;;-3.15;73.92
76590;BME280;65471;55.908;37.880;2023-02-28T09:23:32;99328.16;;;-3.11;73.54
76590;BME280;65471;55.908;37.880;2023-02-28T09:25:59;99327.72;;;-3.06;74.13
76590;BME280;65471;55.908;37.880;2023-02-28T09:28:26;99325.66;;;-2.95;73.49
76590;BME280;65471;55.908;37.880;2023-02-28T09:30:53;99332.94;;;-2.88;73.54
76590;BME280;65471;55.908;37.880;2023-02-28T09:33:21;99305.69;;;-2.89;72.99
76590;BME280;65471;55.908;37.880;2023-02-28T09:35:49;99298.25;;;-2.85;72.98
76590;BME280;65471;55.908;37.880;2023-02-28T09:38:17;99299.44;;;-2.80;72.87
76590;BME280;65471;55.908;37.880;2023-02-28T09:40:50;99289.53;;;-2.78;72.51
76590;BME280;65471;55.908;37.880;2023-02-28T09:43:22;99276.84;;;-2.66;72.58
76590;BME280;65471;55.908;37.880;2023-02-28T09:45:58;99293.38;;;-2.72;72.35
76590;BME280;65471;55.908;37.880;2023-02-28T09:48:32;99288.41;;;-2.75;72.52
76590;BME280;65471;55.908;37.880;2023-02-28T09:53:39;99280.59;;;-2.77;72.27
76590;BME280;65471;55.908;37.880;2023-02-28T09:58:54;99273.63;;;-2.86;72.91
76590;BME280;65471;55.908;37.880;2023-02-28T10:01:27;99262.38;;;-2.80;72.57
76590;BME280;65471;55.908;37.880;2023-02-28T10:10:34;99237.69;;;-2.62;72.18
76590;BME280;65471;55.908;37.880;2023-02-28T10:13:05;99209.50;;;-2.71;71.65
76590;BME280;65471;55.908;37.880;2023-02-28T10:15:34;99228.91;;;-2.63;71.90
76590;BME280;65471;55.908;37.880;2023-02-28T10:18:05;99226.09;;;-2.61;71.81
76590;BME280;65471;55.908;37.880;2023-02-28T10:20:38;99232.38;;;-2.62;72.01
76590;BME280;65471;55.908;37.880;2023-02-28T10:23:34;99213.34;;;-2.66;71.98
76590;BME280;65471;55.908;37.880;2023-02-28T10:26:12;99203.72;;;-2.67;72.05
76590;BME280;65471;55.908;37.880;2023-02-28T10:28:56;99206.09;;;-2.64;71.76
76590;BME280;65471;55.908;37.880;2023-02-28T10:31:23;99218.84;;;-2.59;71.95
76590;BME280;65471;55.908;37.880;2023-02-28T10:34:03;99206.09;;;-2.64;71.96
76590;BME280;65471;55.908;37.880;2023-02-28T10:36:35;99214.03;;;-2.64;72.16
76590;BME280;65471;55.908;37.880;2023-02-28T10:39:44;99188.91;;;-2.51;72.15
76590;BME280;65471;55.908;37.880;2023-02-28T10:42:24;99174.16;;;-2.54;71.67
76590;BME280;65471;55.908;37.880;2023-02-28T10:45:25;99208.13;;;-2.33;71.21
76590;BME280;65471;55.908;37.880;2023-02-28T10:50:53;99173.88;;;-2.51;71.50
76590;BME280;65471;55.908;37.880;2023-02-28T10:58:28;99186.44;;;-2.45;71.93
76590;BME280;65471;55.908;37.880;2023-02-28T11:00:55;99181.78;;;-2.43;71.90
76590;BME280;65471;55.908;37.880;2023-02-28T11:03:36;99181.47;;;-2.39;71.88
76590;BME280;65471;55.908;37.880;2023-02-28T11:06:08;99175.53;;;-2.41;71.97
76590;BME280;65471;55.908;37.880;2023-02-28T11:08:48;99183.47;;;-2.41;72.43
76590;BME280;65471;55.908;37.880;2023-02-28T11:11:17;99174.38;;;-2.39;72.59
76590;BME280;65471;55.908;37.880;2023-02-28T11:13:47;99172.91;;;-2.33;72.72
76590;BME280;65471;55.908;37.880;2023-02-28T11:16:16;99184.13;;;-2.31;72.70
76590;BME280;65471;55.908;37.880;2023-02-28T11:18:49;99173.53;;;-2.31;72.81
76590;BME280;65471;55.908;37.880;2023-02-28T11:21:34;99172.41;;;-2.29;72.85
76590;BME280;65471;55.908;37.880;2023-02-28T11:24:16;99170.41;;;-2.18;72.97
76590;BME280;65471;55.908;37.880;2023-02-28T11:26:51;99172.09;;;-2.09;73.19
76590;BME280;65471;55.908;37.880;2023-02-28T11:29:25;99160.00;;;-2.03;73.21
76590;BME280;65471;55.908;37.880;2023-02-28T11:34:41;99160.31;;;-1.98;73.60
76590;BME280;65471;55.908;37.880;2023-02-28T11:37:16;99167.78;;;-2.02;73.85
76590;BME280;65471;55.908;37.880;2023-02-28T11:39:45;99131.38;;;-2.08;74.08
76590;BME280;65471;55.908;37.880;2023-02-28T11:42:29;99143.28;;;-2.12;74.85
76590;BME280;65471;55.908;37.880;2023-02-28T11:45:20;99136.81;;;-2.10;74.91
76590;BME280;65471;55.908;37.880;2023-02-28T11:53:21;99116.47;;;-2.01;74.90
76590;BME280;65471;55.908;37.880;2023-02-28T11:58:48;99117.47;;;-1.94;74.92
76590;BME280;65471;55.908;37.880;2023-02-28T12:01:36;99102.03;;;-1.90;75.41
76590;BME280;65471;55.908;37.880;2023-02-28T12:04:21;99105.03;;;-1.85;74.98
76590;BME280;65471;55.908;37.880;2023-02-28T12:15:49;99104.84;;;-1.75;75.08
76590;BME280;65471;55.908;37.880;2023-02-28T12:21:18;99097.06;;;-1.77;75.36
76590;BME280;65471;55.908;37.880;2023-02-28T12:24:30;99093.09;;;-1.81;75.09
76590;BME280;65471;55.908;37.880;2023-02-28T12:26:42;99089.78;;;-1.83;75.18
76590;BME280;65471;55.908;37.880;2023-02-28T12:30:00;99095.75;;;-1.81;75.49
76590;BME280;65471;55.908;37.880;2023-02-28T12:32:06;99076.00;;;-1.78;75.28
76590;BME280;65471;55.908;37.880;2023-02-28T12:34:39;99071.22;;;-1.75;75.15
76590;BME280;65471;55.908;37.880;2023-02-28T12:37:56;99078.63;;;-1.70;75.45
76590;BME280;65471;55.908;37.880;2023-02-28T12:40:11;99056.78;;;-1.72;75.27
76590;BME280;65471;55.908;37.880;2023-02-28T12:42:42;99040.75;;;-1.79;75.21
76590;BME280;65471;55.908;37.880;2023-02-28T12:45:19;99042.41;;;-1.86;75.71
76590;BME280;65471;55.908;37.880;2023-02-28T12:47:52;99041.44;;;-1.85;75.93
76590;BME280;65471;55.908;37.880;2023-02-28T12:50:22;99039.41;;;-1.83;75.76
76590;BME280;65471;55.908;37.880;2023-02-28T12:52:56;99042.75;;;-1.81;75.97
76590;BME280;65471;55.908;37.880;2023-02-28T12:55:40;99015.91;;;-1.78;75.87
76590;BME280;65471;55.908;37.880;2023-02-28T13:04:24;99014.69;;;-1.67;75.42
76590;BME280;65471;55.908;37.880;2023-02-28T13:09:27;98990.72;;;-1.74;75.76
76590;BME280;65471;55.908;37.880;2023-02-28T13:11:57;98995.16;;;-1.74;75.83
76590;BME280;65471;55.908;37.880;2023-02-28T13:19:39;98998.59;;;-1.57;75.83
76590;BME280;65471;55.908;37.880;2023-02-28T13:22:20;99005.22;;;-1.61;75.71
76590;BME280;65471;55.908;37.880;2023-02-28T13:24:49;99000.59;;;-1.59;75.83
76590;BME280;65471;55.908;37.880;2023-02-28T13:27:20;98987.34;;;-1.59;76.16
76590;BME280;65471;55.908;37.880;2023-02-28T13:29:52;98971.78;;;-1.62;76.05
76590;BME280;65471;55.908;37.880;2023-02-28T13:39:57;98947.53;;;-1.51;76.18
76590;BME280;65471;55.908;37.880;2023-02-28T13:42:46;98951.00;;;-1.50;76.01
76590;BME280;65471;55.908;37.880;2023-02-28T13:45:27;98965.06;;;-1.50;76.43
76590;BME280;65471;55.908;37.880;2023-02-28T13:47:58;98962.75;;;-1.45;76.41
76590;BME280;65471;55.908;37.880;2023-02-28T14:07:06;98970.25;;;-1.25;76.05
76590;BME280;65471;55.908;37.880;2023-02-28T14:09:46;98962.66;;;-1.28;76.36
76590;BME280;65471;55.908;37.880;2023-02-28T14:15:40;98951.16;;;-1.20;76.64
76590;BME280;65471;55.908;37.880;2023-02-28T14:21:12;98942.03;;;-1.18;76.83
76590;BME280;65471;55.908;37.880;2023-02-28T14:31:54;98941.53;;;-1.22;77.04
76590;BME280;65471;55.908;37.880;2023-02-28T14:34:42;98939.19;;;-1.16;76.62
76590;BME280;65471;55.908;37.880;2023-02-28T14:37:27;98931.88;;;-1.14;76.93
76590;BME280;65471;55.908;37.880;2023-02-28T14:39:55;98924.22;;;-1.09;76.85
76590;BME280;65471;55.908;37.880;2023-02-28T14:42:47;98919.03;;;-1.02;76.76
76590;BME280;65471;55.908;37.880;2023-02-28T14:45:21;98914.72;;;-1.03;76.79
76590;BME280;65471;55.908;37.880;2023-02-28T14:47:50;98914.91;;;-1.05;76.81
76590;BME280;65471;55.908;37.880;2023-02-28T14:50:23;98902.09;;;-1.01;77.15
76590;BME280;65471;55.908;37.880;2023-02-28T14:52:53;98913.00;;;-0.96;77.07
76590;BME280;65471;55.908;37.880;2023-02-28T14:55:26;98911.19;;;-0.96;76.63
76590;BME280;65471;55.908;37.880;2023-02-28T14:57:55;98922.09;;;-0.91;76.67
76590;BME280;65471;55.908;37.880;2023-02-28T15:00:28;98899.94;;;-0.98;76.95
76590;BME280;65471;55.908;37.880;2023-02-28T15:02:57;98919.97;;;-0.95;77.00
76590;BME280;65471;55.908;37.880;2023-02-28T15:08:05;98914.50;;;-0.94;77.51
76590;BME280;65471;55.908;37.880;2023-02-28T15:10:33;98923.09;;;-0.92;77.44
76590;BME280;65471;55.908;37.880;2023-02-28T15:13:12;98917.59;;;-0.90;77.14
76590;BME280;65471;55.908;37.880;2023-02-28T15:19:01;98913.59;;;-0.86;76.99
76590;BME280;65471;55.908;37.880;2023-02-28T15:21:34;98914.44;;;-0.85;77.15
76590;BME280;65471;55.908;37.880;2023-02-28T15:24:30;98918.81;;;-0.78;77.58
76590;BME280;65471;55.908;37.880;2023-02-28T15:27:00;98912.03;;;-0.80;77.25
76590;BME280;65471;55.908;37.880;2023-02-28T15:29:30;98906.19;;;-0.76;77.67
76590;BME280;65471;55.908;37.880;2023-02-28T15:34:41;98902.72;;;-0.76;77.31